createdAt,value
2019-05-09T00:01:13.997Z,9.40
2019-05-09T00:06:17.610Z,9.40
2019-05-09T00:11:21.582Z,9.30
2019-05-09T00:16:25.573Z,9.30
2019-05-09T00:21:38.489Z,9.30
2019-05-09T00:26:44.234Z,9.20
2019-05-09T00:31:55.511Z,9.20
2019-05-09T00:36:59.422Z,9.20
2019-05-09T00:42:04.369Z,9.20
2019-05-09T00:47:33.741Z,9.20
2019-05-09T00:52:37.984Z,9.20
2019-05-09T00:57:43.971Z,9.20
2019-05-09T01:02:48.542Z,9.20
2019-05-09T01:07:53.771Z,9.10
2019-05-09T01:12:58.347Z,9.10
2019-05-09T01:18:04.433Z,9.10
2019-05-09T01:23:08.527Z,9.10
2019-05-09T01:28:13.925Z,9.00
2019-05-09T01:33:40.490Z,8.90
2019-05-09T01:38:44.550Z,8.90
2019-05-09T01:43:48.786Z,8.90
2019-05-09T01:48:53.855Z,8.70
2019-05-09T01:53:58.897Z,8.70
2019-05-09T01:59:03.222Z,8.60
2019-05-09T02:04:07.409Z,8.50
2019-05-09T02:09:13.880Z,8.40
2019-05-09T02:14:23.877Z,8.30
2019-05-09T02:19:33.607Z,8.30
2019-05-09T02:24:37.694Z,8.20
2019-05-09T02:29:43.817Z,8.20
2019-05-09T02:34:48.083Z,8.20
2019-05-09T02:39:52.315Z,8.20
2019-05-09T02:44:59.239Z,8.20
2019-05-09T02:50:02.156Z,8.30
2019-05-09T02:55:09.981Z,8.30
2019-05-09T03:00:20.831Z,8.40
2019-05-09T03:05:25.158Z,8.40
2019-05-09T03:10:29.557Z,8.40
2019-05-09T03:15:33.954Z,8.50
2019-05-09T03:20:54.852Z,8.50
2019-05-09T03:25:59.057Z,8.50
2019-05-09T03:31:03.136Z,8.50
2019-05-09T03:36:07.780Z,8.50
2019-05-09T03:41:11.303Z,8.40
2019-05-09T03:46:32.890Z,8.30
2019-05-09T03:51:37.858Z,8.20
2019-05-09T03:56:44.502Z,8.00
2019-05-09T04:01:50.148Z,7.90
2019-05-09T04:06:52.301Z,7.90
2019-05-09T04:11:55.277Z,7.90
2019-05-09T04:16:58.443Z,7.90
2019-05-09T04:22:02.408Z,8.00
2019-05-09T04:27:12.104Z,8.10
2019-05-09T04:32:15.450Z,8.20
2019-05-09T04:37:19.347Z,8.30
2019-05-09T04:42:22.536Z,9.00
2019-05-09T04:47:27.842Z,9.00
2019-05-09T04:52:31.044Z,8.90
2019-05-09T04:57:34.213Z,8.80
2019-05-09T05:02:41.977Z,8.80
2019-05-09T05:07:45.350Z,8.80
2019-05-09T05:12:48.769Z,8.90
2019-05-09T05:17:51.822Z,9.00
2019-05-09T05:23:08.288Z,9.00
2019-05-09T05:28:11.675Z,9.10
2019-05-09T05:33:53.949Z,9.20
2019-05-09T05:38:58.516Z,9.40
2019-05-09T05:44:02.012Z,9.60
2019-05-09T05:49:05.094Z,10.20
2019-05-09T05:54:08.414Z,10.90
2019-05-09T05:59:11.431Z,11.60
2019-05-09T06:04:14.756Z,12.30
2019-05-09T06:09:19.042Z,12.70
2019-05-09T06:14:22.298Z,12.60
2019-05-09T06:19:28.422Z,12.40
2019-05-09T06:24:30.728Z,12.20
2019-05-09T06:29:33.730Z,12.30
2019-05-09T06:34:41.348Z,14.00
2019-05-09T06:45:12.641Z,17.70
2019-05-09T06:50:18.469Z,19.10
2019-05-09T06:55:21.691Z,19.90
2019-05-09T07:00:37.958Z,20.50
2019-05-09T07:05:57.756Z,21.00
2019-05-09T07:11:01.166Z,21.60
2019-05-09T07:16:04.301Z,21.90
2019-05-09T07:21:08.263Z,22.30
2019-05-09T07:26:17.862Z,22.50
2019-05-09T07:31:34.823Z,22.90
2019-05-09T07:36:38.484Z,23.30
2019-05-09T07:41:41.917Z,23.00
2019-05-09T07:46:52.163Z,23.20
2019-05-09T07:51:55.264Z,23.70
2019-05-09T07:56:58.391Z,23.80
2019-05-09T08:02:01.458Z,24.00
2019-05-09T08:07:04.600Z,24.10
2019-05-09T08:12:08.052Z,23.30
2019-05-09T08:17:11.400Z,22.90
2019-05-09T08:22:14.469Z,21.70
2019-05-09T08:27:17.684Z,20.70
2019-05-09T08:32:21.071Z,20.00
2019-05-09T08:37:24.596Z,20.20
2019-05-09T08:42:29.368Z,21.20
2019-05-09T08:47:32.876Z,22.00
2019-05-09T08:52:37.644Z,23.20
2019-05-09T08:57:40.984Z,22.40
2019-05-09T09:02:44.039Z,22.30
2019-05-09T09:07:48.682Z,21.00
2019-05-09T09:12:52.179Z,20.70
2019-05-09T09:17:57.663Z,22.40
2019-05-09T09:23:00.146Z,23.10
2019-05-09T09:28:03.250Z,22.10
2019-05-09T09:33:09.107Z,21.00
2019-05-09T09:38:11.443Z,20.30
2019-05-09T09:43:14.827Z,21.10
2019-05-09T09:48:21.777Z,21.40
2019-05-09T09:53:27.705Z,21.80
2019-05-09T09:58:29.757Z,21.40
2019-05-09T10:03:35.351Z,20.80
2019-05-09T10:08:40.069Z,21.20
2019-05-09T10:13:44.737Z,22.30
2019-05-09T10:19:01.975Z,23.30
2019-05-09T10:24:05.295Z,22.20
2019-05-09T10:29:08.401Z,21.00
2019-05-09T10:34:11.499Z,19.90
2019-05-09T10:39:14.813Z,20.30
2019-05-09T10:44:22.563Z,21.70
2019-05-09T10:49:25.550Z,22.50
2019-05-09T10:54:28.614Z,22.90
2019-05-09T10:59:31.754Z,23.40
2019-05-09T11:04:37.548Z,23.90
2019-05-09T11:09:40.261Z,24.00
2019-05-09T11:14:43.314Z,24.30
2019-05-09T11:19:48.282Z,24.20
2019-05-09T11:24:51.773Z,24.20
2019-05-09T11:29:57.600Z,23.80
2019-05-09T11:34:59.891Z,23.20
2019-05-09T11:40:03.121Z,22.80
2019-05-09T11:45:07.632Z,21.90
2019-05-09T11:50:11.012Z,21.30
2019-05-09T11:55:28.531Z,20.80
2019-05-09T12:00:19.014Z,20.40
2019-05-09T12:05:22.158Z,20.10
2019-05-09T12:10:25.228Z,19.80
2019-05-09T12:15:29.074Z,19.60
2019-05-09T12:20:33.090Z,19.30
2019-05-09T12:25:38.456Z,19.10
2019-05-09T12:30:41.258Z,19.10
2019-05-09T12:35:44.490Z,19.20
2019-05-09T12:40:48.192Z,18.80
2019-05-09T12:45:51.588Z,18.70
2019-05-09T12:50:54.838Z,18.50
2019-05-09T12:56:00.887Z,18.50
2019-05-09T13:01:04.359Z,18.50
2019-05-09T13:06:08.221Z,18.50
2019-05-09T13:11:11.793Z,18.50
2019-05-09T13:16:50.768Z,18.30
2019-05-09T13:21:51.205Z,18.10
2019-05-09T13:26:54.329Z,18.00
2019-05-09T13:31:57.793Z,18.00
2019-05-09T13:37:00.941Z,17.90
2019-05-09T13:42:04.011Z,17.80
2019-05-09T13:47:10.639Z,17.80
2019-05-09T13:52:11.855Z,17.70
2019-05-09T13:57:14.999Z,17.50
2019-05-09T14:02:19.078Z,17.50
2019-05-09T14:07:22.613Z,17.50
2019-05-09T14:12:28.915Z,17.70
2019-05-09T14:17:48.271Z,17.90
2019-05-09T14:22:38.576Z,18.10
2019-05-09T14:27:42.239Z,18.20
2019-05-09T14:32:45.240Z,18.10
2019-05-09T14:37:48.876Z,18.00
2019-05-09T14:42:52.200Z,17.90
2019-05-09T14:47:55.385Z,17.50
2019-05-09T14:52:58.562Z,17.10
2019-05-09T14:58:01.562Z,16.80
2019-05-09T15:03:04.628Z,16.40
2019-05-09T15:08:08.488Z,16.20
2019-05-09T15:13:11.486Z,16.10
2019-05-09T15:18:14.556Z,15.90
2019-05-09T15:23:19.629Z,15.80
2019-05-09T15:28:22.295Z,15.70
2019-05-09T15:33:27.411Z,15.60
2019-05-09T15:38:30.420Z,15.40
2019-05-09T15:43:33.741Z,15.30
2019-05-09T15:48:38.126Z,15.20
2019-05-09T15:53:41.303Z,15.10
2019-05-09T15:58:44.612Z,15.00
2019-05-09T16:03:48.534Z,15.00
2019-05-09T16:08:52.035Z,15.00
2019-05-09T16:13:55.158Z,14.90
2019-05-09T16:18:58.490Z,14.90
2019-05-09T16:24:01.560Z,14.90
2019-05-09T16:29:04.745Z,14.90
2019-05-09T16:34:09.456Z,14.80
2019-05-09T16:39:13.240Z,14.60
2019-05-09T16:44:18.274Z,14.20
2019-05-09T16:49:25.797Z,14.00
2019-05-09T16:54:29.774Z,13.80
2019-05-09T16:59:32.963Z,13.60
2019-05-09T17:04:38.741Z,13.60
2019-05-09T17:09:43.843Z,13.60
2019-05-09T17:14:59.394Z,13.50
2019-05-09T17:20:00.925Z,13.40
2019-05-09T17:25:04.087Z,13.40
2019-05-09T17:30:08.614Z,13.30
2019-05-09T17:35:12.467Z,13.40
2019-05-09T17:40:16.912Z,13.30
2019-05-09T17:45:20.437Z,13.20
2019-05-09T17:50:23.568Z,13.10
2019-05-09T17:55:26.737Z,13.00
2019-05-09T18:00:38.028Z,12.90
2019-05-09T18:05:41.656Z,12.70
2019-05-09T18:10:45.005Z,12.50
2019-05-09T18:15:48.971Z,12.30
2019-05-09T18:20:52.054Z,12.20
2019-05-09T18:25:55.197Z,12.00
2019-05-09T18:31:07.954Z,11.80
2019-05-09T18:36:12.748Z,11.60
2019-05-09T18:41:17.785Z,11.40
2019-05-09T18:46:21.677Z,11.10
2019-05-09T18:51:28.573Z,10.90
2019-05-09T18:56:30.744Z,10.80
2019-05-09T19:01:34.010Z,10.70
2019-05-09T19:06:39.864Z,10.70
2019-05-09T19:11:42.327Z,10.70
2019-05-09T19:17:00.507Z,10.60
2019-05-09T19:22:06.585Z,10.70
2019-05-09T19:27:09.098Z,10.60
2019-05-09T19:32:12.242Z,10.60
2019-05-09T19:37:15.304Z,10.50
2019-05-09T19:42:18.688Z,10.30
2019-05-09T19:47:21.797Z,10.10
2019-05-09T19:52:37.274Z,9.90
2019-05-09T19:57:29.919Z,9.80
2019-05-09T20:02:33.074Z,9.60
2019-05-09T20:07:36.395Z,9.50
2019-05-09T20:12:47.820Z,9.40
2019-05-09T20:17:51.225Z,9.40
2019-05-09T20:22:54.283Z,9.50
2019-05-09T20:27:57.402Z,9.60
2019-05-09T20:33:00.965Z,9.60
2019-05-09T20:38:04.433Z,9.60
2019-05-09T20:43:07.921Z,9.60
2019-05-09T20:48:11.443Z,9.70
2019-05-09T20:53:17.022Z,9.70
2019-05-09T20:58:20.211Z,9.80
2019-05-09T21:03:23.459Z,9.90
2019-05-09T21:08:27.116Z,10.00
2019-05-09T21:13:30.364Z,10.20
2019-05-09T21:18:33.974Z,10.20
2019-05-09T21:23:37.423Z,10.30
2019-05-09T21:28:41.093Z,10.30
2019-05-09T21:33:44.625Z,10.30
2019-05-09T21:38:47.595Z,10.30
2019-05-09T21:43:50.678Z,10.30
2019-05-09T21:48:53.923Z,10.30
2019-05-09T21:53:57.065Z,10.30
2019-05-09T21:59:00.158Z,10.30
2019-05-09T22:04:03.211Z,10.30
2019-05-09T22:09:08.718Z,10.40
2019-05-09T22:14:11.853Z,10.40
2019-05-09T22:19:15.286Z,10.50
2019-05-09T22:24:18.946Z,10.60
2019-05-09T22:29:21.947Z,10.60
2019-05-09T22:34:25.422Z,10.60
2019-05-09T22:39:28.710Z,10.60
2019-05-09T22:44:31.720Z,10.60
2019-05-09T22:49:35.063Z,10.60
2019-05-09T22:54:38.035Z,10.60
2019-05-09T22:59:41.531Z,10.60
2019-05-09T23:04:45.134Z,10.60
2019-05-09T23:09:48.227Z,10.60
2019-05-09T23:14:51.293Z,10.60
2019-05-09T23:19:54.426Z,10.60
2019-05-09T23:24:58.063Z,10.60
2019-05-09T23:30:01.147Z,10.50
2019-05-09T23:35:04.394Z,10.50
2019-05-09T23:40:08.717Z,10.50
2019-05-09T23:45:11.923Z,10.50
2019-05-09T23:50:15.286Z,10.50
2019-05-09T23:55:36.774Z,10.50
